Time;durP1;ratioP1;P1;durP2;ratioP2;P2;SDS_P1;SDS_P2;PMS_P1;PMS_P2;Temp;Humidity;BMP_temperature;BMP_pressure;BME280_temperature;BME280_humidity;BME280_pressure;Samples;Min_cycle;Max_cycle;Signal;HPM_P1;HPM_P2
2024/01/01 00:00:36;;;;;;;;;;;6.80;99.90;;;;;;5062428;28;19932;-78
2024/01/01 00:03:03;;;;;;;;;;;6.80;99.90;;;;;;5062189;28;19935;-77
2024/01/01 00:05:29;;;;;;;;;;;6.80;99.90;;;;;;5061101;28;19933;-77
2024/01/01 00:07:56;;;;;;;;;;;6.70;99.90;;;;;;5058767;28;19932;-78
2024/01/01 00:10:24;;;;;;;;;;;6.80;99.90;;;;;;5063344;28;19981;-78
2024/01/01 00:12:51;;;;;;;;;;;6.80;99.90;;;;;;5063965;28;20601;-78
2024/01/01 00:15:18;;;;;;;;;;;6.80;99.90;;;;;;5063257;28;20295;-77
2024/01/01 00:17:44;;;;;;;;;;;6.80;99.90;;;;;;5061216;28;19928;-78
2024/01/01 00:20:11;;;;;;;;;;;6.80;99.90;;;;;;5061725;28;19928;-77
2024/01/01 00:22:38;;;;;;;;;;;6.80;99.90;;;;;;5064455;28;19928;-78
2024/01/01 00:25:05;;;;;;;;;;;6.80;99.90;;;;;;5066433;28;19929;-78
2024/01/01 00:27:34;;;;;;;;;;;6.80;99.90;;;;;;5066856;28;20027;-78
2024/01/01 00:30:00;;;;;;;;;;;6.80;99.90;;;;;;5066908;28;20005;-78
2024/01/01 00:32:27;;;;;;;;;;;6.80;99.90;;;;;;5066260;28;20021;-77
2024/01/01 00:34:54;;;;;;;;;;;6.80;99.90;;;;;;5056573;28;19935;-79
2024/01/01 00:37:20;;;;;;;;;;;6.80;99.90;;;;;;5066803;28;19929;-77
2024/01/01 00:39:47;;;;;;;;;;;6.80;99.90;;;;;;5066308;28;20447;-77
2024/01/01 00:42:13;;;;;;;;;;;6.80;99.90;;;;;;5067158;28;19940;-77
2024/01/01 00:44:43;;;;;;;;;;;6.90;99.90;;;;;;5069155;28;19936;-78
2024/01/01 00:47:09;;;;;;;;;;;6.80;99.90;;;;;;5065312;28;19990;-77
2024/01/01 00:49:36;;;;;;;;;;;6.80;99.90;;;;;;5067824;28;20461;-77
2024/01/01 00:52:02;;;;;;;;;;;6.90;99.90;;;;;;5067521;28;19966;-77
2024/01/01 00:54:29;;;;;;;;;;;6.80;99.90;;;;;;5062650;28;20394;-77
2024/01/01 00:56:55;;;;;;;;;;;6.90;99.90;;;;;;5068044;28;19932;-76
2024/01/01 00:59:22;;;;;;;;;;;6.90;99.90;;;;;;5071115;28;19924;-77
2024/01/01 01:01:50;;;;;;;;;;;6.80;99.90;;;;;;5064822;28;19935;-77
2024/01/01 01:04:17;;;;;;;;;;;6.90;99.90;;;;;;5069280;28;20665;-77
2024/01/01 01:06:45;;;;;;;;;;;6.90;99.90;;;;;;5071609;28;19939;-77
2024/01/01 01:09:11;;;;;;;;;;;6.90;99.90;;;;;;5065273;28;20036;-77
2024/01/01 01:11:40;;;;;;;;;;;6.90;99.90;;;;;;5067328;28;20443;-77
2024/01/01 01:14:06;;;;;;;;;;;6.90;99.90;;;;;;5065025;28;20019;-76
2024/01/01 01:16:33;;;;;;;;;;;6.90;99.90;;;;;;5063890;28;19935;-77
2024/01/01 01:19:01;;;;;;;;;;;6.90;99.90;;;;;;5068416;28;19924;-77
2024/01/01 01:21:27;;;;;;;;;;;6.90;99.90;;;;;;5064599;28;19928;-78
2024/01/01 01:23:55;;;;;;;;;;;6.90;99.90;;;;;;5063933;28;19928;-77
2024/01/01 01:26:21;;;;;;;;;;;6.90;99.90;;;;;;5065667;28;19928;-79
2024/01/01 01:28:48;;;;;;;;;;;6.90;99.90;;;;;;5066755;28;19932;-78
2024/01/01 01:31:14;;;;;;;;;;;6.90;99.90;;;;;;5061644;28;20674;-77
2024/01/01 01:33:41;;;;;;;;;;;6.90;99.90;;;;;;5064615;28;20406;-78
2024/01/01 01:36:09;;;;;;;;;;;6.90;99.90;;;;;;5065591;28;20014;-77
2024/01/01 01:38:37;;;;;;;;;;;7.00;99.90;;;;;;5063097;28;19972;-77
2024/01/01 01:41:04;;;;;;;;;;;6.90;99.90;;;;;;5066500;28;19928;-77
2024/01/01 01:43:30;;;;;;;;;;;6.90;99.90;;;;;;5066307;28;19932;-77
2024/01/01 01:45:59;;;;;;;;;;;6.90;99.90;;;;;;5066678;28;20418;-77
2024/01/01 01:48:26;;;;;;;;;;;7.00;99.90;;;;;;5063074;28;19960;-79
2024/01/01 01:50:52;;;;;;;;;;;7.00;99.90;;;;;;5068445;28;19935;-78
2024/01/01 01:53:23;;;;;;;;;;;6.90;99.90;;;;;;5063796;28;19933;-76
2024/01/01 01:55:51;;;;;;;;;;;6.90;99.90;;;;;;5063733;28;20378;-78
2024/01/01 01:58:18;;;;;;;;;;;6.90;99.90;;;;;;5066910;28;20555;-77
2024/01/01 02:00:45;;;;;;;;;;;7.00;99.90;;;;;;5067839;28;19928;-78
2024/01/01 02:03:12;;;;;;;;;;;7.00;99.90;;;;;;5059512;28;19986;-77
2024/01/01 02:05:38;;;;;;;;;;;7.00;99.90;;;;;;5065528;28;19936;-77
2024/01/01 02:08:06;;;;;;;;;;;7.00;99.90;;;;;;5064090;28;19947;-77
2024/01/01 02:10:34;;;;;;;;;;;7.00;99.90;;;;;;5065800;28;19935;-78
2024/01/01 02:13:01;;;;;;;;;;;6.90;99.90;;;;;;5065856;28;19932;-78
2024/01/01 02:15:27;;;;;;;;;;;6.90;99.90;;;;;;5068133;28;19928;-76
2024/01/01 02:17:54;;;;;;;;;;;6.90;99.90;;;;;;5065070;28;19932;-77
2024/01/01 02:20:20;;;;;;;;;;;6.90;99.90;;;;;;5067529;28;19985;-76
2024/01/01 02:22:48;;;;;;;;;;;6.90;99.90;;;;;;5060668;28;19932;-76
2024/01/01 02:25:16;;;;;;;;;;;6.90;99.90;;;;;;5060774;28;19940;-77
2024/01/01 02:27:43;;;;;;;;;;;7.00;99.90;;;;;;5063071;28;20704;-77
2024/01/01 02:30:10;;;;;;;;;;;6.90;99.90;;;;;;5062714;28;19932;-78
2024/01/01 02:32:37;;;;;;;;;;;6.90;99.90;;;;;;5070995;28;20051;-77
2024/01/01 02:35:07;;;;;;;;;;;6.90;99.90;;;;;;5066983;28;20466;-76
2024/01/01 02:37:33;;;;;;;;;;;6.90;99.90;;;;;;5060874;28;19935;-77
2024/01/01 02:40:00;;;;;;;;;;;6.90;99.90;;;;;;5068381;28;19939;-76
2024/01/01 02:42:28;;;;;;;;;;;6.90;99.90;;;;;;5064132;28;19932;-77
2024/01/01 02:44:55;;;;;;;;;;;6.90;99.90;;;;;;5068924;28;19932;-77
2024/01/01 02:47:21;;;;;;;;;;;6.90;99.90;;;;;;5064662;28;19928;-76
2024/01/01 02:49:48;;;;;;;;;;;6.90;99.90;;;;;;5068454;28;19967;-77
2024/01/01 02:52:14;;;;;;;;;;;6.90;99.90;;;;;;5067540;28;19933;-78
2024/01/01 02:54:41;;;;;;;;;;;6.90;99.90;;;;;;5061320;28;20416;-77
2024/01/01 02:57:07;;;;;;;;;;;6.90;99.90;;;;;;5065041;28;19928;-77
2024/01/01 02:59:35;;;;;;;;;;;6.90;99.90;;;;;;5066709;28;19928;-76
2024/01/01 03:02:02;;;;;;;;;;;6.90;99.90;;;;;;5066626;28;19936;-76
2024/01/01 03:04:31;;;;;;;;;;;6.90;99.90;;;;;;5054437;28;20015;-76
2024/01/01 03:06:57;;;;;;;;;;;6.90;99.90;;;;;;5062405;28;19928;-77
2024/01/01 03:09:24;;;;;;;;;;;6.90;99.90;;;;;;5061116;28;19928;-77
2024/01/01 03:11:50;;;;;;;;;;;6.90;99.90;;;;;;5066501;28;20557;-76
2024/01/01 03:14:17;;;;;;;;;;;6.90;99.90;;;;;;5062682;28;19932;-77
2024/01/01 03:16:45;;;;;;;;;;;6.90;99.90;;;;;;5066213;28;19942;-78
2024/01/01 03:19:11;;;;;;;;;;;6.90;99.90;;;;;;5066576;28;20139;-76
2024/01/01 03:21:38;;;;;;;;;;;6.90;99.90;;;;;;5066516;28;19931;-76
2024/01/01 03:24:05;;;;;;;;;;;6.90;99.90;;;;;;5059310;28;20439;-77
2024/01/01 03:26:31;;;;;;;;;;;7.00;99.90;;;;;;5065852;28;19940;-76
2024/01/01 03:28:58;;;;;;;;;;;6.90;99.90;;;;;;5069479;28;20094;-76
2024/01/01 03:31:25;;;;;;;;;;;6.90;99.90;;;;;;5060934;28;19928;-76
2024/01/01 03:33:53;;;;;;;;;;;6.90;99.90;;;;;;5068274;28;19935;-77
2024/01/01 03:36:20;;;;;;;;;;;6.90;99.90;;;;;;5063168;28;19928;-76
2024/01/01 03:38:46;;;;;;;;;;;6.90;99.90;;;;;;5064816;28;19924;-77
2024/01/01 03:41:13;;;;;;;;;;;6.90;99.90;;;;;;5069049;28;19928;-77
2024/01/01 03:43:39;;;;;;;;;;;6.90;99.90;;;;;;5069287;28;19944;-77
2024/01/01 03:46:06;;;;;;;;;;;6.90;99.90;;;;;;5058701;28;19974;-77
2024/01/01 03:48:32;;;;;;;;;;;6.90;99.90;;;;;;5064445;28;19928;-76
2024/01/01 03:51:00;;;;;;;;;;;6.90;99.90;;;;;;5067804;28;19928;-77
2024/01/01 03:53:26;;;;;;;;;;;6.90;99.90;;;;;;5064476;28;20005;-76
2024/01/01 03:55:53;;;;;;;;;;;6.90;99.90;;;;;;5065661;28;21266;-78
2024/01/01 03:58:19;;;;;;;;;;;6.90;99.90;;;;;;5067002;28;19936;-76
2024/01/01 04:00:46;;;;;;;;;;;6.90;99.90;;;;;;5068422;28;19932;-76
2024/01/01 04:03:13;;;;;;;;;;;6.90;99.90;;;;;;5059518;28;19932;-76
2024/01/01 04:05:39;;;;;;;;;;;6.90;99.90;;;;;;5065949;28;19933;-76
2024/01/01 04:08:07;;;;;;;;;;;6.90;99.90;;;;;;5064316;28;19936;-77
2024/01/01 04:10:34;;;;;;;;;;;6.90;99.90;;;;;;5065293;28;20431;-76
2024/01/01 04:13:00;;;;;;;;;;;6.90;99.90;;;;;;5070154;28;19928;-78
2024/01/01 04:15:27;;;;;;;;;;;6.90;99.90;;;;;;5067724;28;19940;-77
2024/01/01 04:17:53;;;;;;;;;;;6.90;99.90;;;;;;5064689;28;19928;-77
2024/01/01 04:20:20;;;;;;;;;;;6.90;99.90;;;;;;5063345;28;19936;-77
2024/01/01 04:22:51;;;;;;;;;;;6.90;99.90;;;;;;5068351;28;19933;-76
2024/01/01 04:25:19;;;;;;;;;;;6.90;99.90;;;;;;5063366;28;19932;-77
2024/01/01 04:27:45;;;;;;;;;;;6.80;99.90;;;;;;5072033;28;19928;-76
2024/01/01 04:30:13;;;;;;;;;;;6.80;99.90;;;;;;5063901;28;20390;-75
2024/01/01 04:32:40;;;;;;;;;;;6.80;99.90;;;;;;5065397;28;19929;-78
2024/01/01 04:35:07;;;;;;;;;;;6.80;99.90;;;;;;5067764;28;20390;-77
2024/01/01 04:37:33;;;;;;;;;;;6.80;99.90;;;;;;5063752;28;19928;-76
2024/01/01 04:40:00;;;;;;;;;;;6.80;99.90;;;;;;5070811;28;20340;-76
2024/01/01 04:42:27;;;;;;;;;;;6.80;99.90;;;;;;5065461;28;19974;-77
2024/01/01 04:44:54;;;;;;;;;;;6.80;99.90;;;;;;5066580;28;19936;-76
2024/01/01 04:47:22;;;;;;;;;;;6.80;99.90;;;;;;5061464;28;20329;-77
2024/01/01 04:49:48;;;;;;;;;;;6.80;99.90;;;;;;5067045;28;19932;-77
2024/01/01 04:52:15;;;;;;;;;;;6.80;99.90;;;;;;5059990;28;20356;-78
2024/01/01 04:54:41;;;;;;;;;;;6.80;99.90;;;;;;5065158;28;19932;-76
2024/01/01 04:57:08;;;;;;;;;;;6.80;99.90;;;;;;5066158;28;19932;-76
2024/01/01 04:59:36;;;;;;;;;;;6.80;99.90;;;;;;5066301;28;19940;-77
2024/01/01 05:02:02;;;;;;;;;;;6.80;99.90;;;;;;5065585;28;20358;-76
2024/01/01 05:04:29;;;;;;;;;;;6.80;99.90;;;;;;5064289;28;20460;-76
2024/01/01 05:06:55;;;;;;;;;;;6.80;99.90;;;;;;5066530;28;20005;-75
2024/01/01 05:09:22;;;;;;;;;;;6.80;99.90;;;;;;5060421;28;19993;-77
2024/01/01 05:11:48;;;;;;;;;;;6.80;99.90;;;;;;5070131;28;20509;-76
2024/01/01 05:14:15;;;;;;;;;;;6.80;99.90;;;;;;5069020;28;20421;-77
2024/01/01 05:16:47;;;;;;;;;;;6.80;99.90;;;;;;5067160;28;19935;-77
2024/01/01 05:19:13;;;;;;;;;;;6.90;99.90;;;;;;5069071;28;19939;-78
2024/01/01 05:21:40;;;;;;;;;;;6.90;99.90;;;;;;5068400;28;20646;-77
2024/01/01 05:24:06;;;;;;;;;;;6.80;99.90;;;;;;5065597;28;19929;-75
2024/01/01 05:26:33;;;;;;;;;;;6.90;99.90;;;;;;5068342;28;20593;-77
2024/01/01 05:28:59;;;;;;;;;;;6.90;99.90;;;;;;5067649;28;19928;-78
2024/01/01 05:31:26;;;;;;;;;;;6.90;99.90;;;;;;5065729;28;19928;-77
2024/01/01 05:33:54;;;;;;;;;;;6.90;99.90;;;;;;5068477;28;19977;-76
2024/01/01 05:36:20;;;;;;;;;;;6.90;99.90;;;;;;5061020;28;19943;-76
2024/01/01 05:38:47;;;;;;;;;;;6.90;99.90;;;;;;5068825;28;19928;-77
2024/01/01 05:41:13;;;;;;;;;;;6.90;99.90;;;;;;5068777;28;20306;-77
2024/01/01 05:43:40;;;;;;;;;;;6.90;99.90;;;;;;5073251;28;19929;-76
2024/01/01 05:46:06;;;;;;;;;;;6.90;99.90;;;;;;5059965;28;19990;-76
2024/01/01 05:48:33;;;;;;;;;;;6.90;99.90;;;;;;5059533;28;20023;-77
2024/01/01 05:51:00;;;;;;;;;;;6.90;99.90;;;;;;5068247;28;19932;-76
2024/01/01 05:53:26;;;;;;;;;;;6.90;99.90;;;;;;5065008;28;20668;-77
2024/01/01 05:55:53;;;;;;;;;;;6.90;99.90;;;;;;5064394;28;19928;-78
2024/01/01 05:58:20;;;;;;;;;;;6.90;99.90;;;;;;5069501;28;19942;-77
2024/01/01 06:00:46;;;;;;;;;;;6.90;99.90;;;;;;5066720;28;19933;-76
2024/01/01 06:03:13;;;;;;;;;;;6.90;99.90;;;;;;5068450;28;20001;-77
2024/01/01 06:05:40;;;;;;;;;;;6.90;99.90;;;;;;5064891;28;19939;-78
2024/01/01 06:08:08;;;;;;;;;;;7.00;99.90;;;;;;5066350;28;19929;-77
2024/01/01 06:10:35;;;;;;;;;;;7.00;99.90;;;;;;5059295;28;19928;-76
2024/01/01 06:13:02;;;;;;;;;;;6.90;99.90;;;;;;5060394;28;19937;-78
2024/01/01 06:15:29;;;;;;;;;;;6.90;99.90;;;;;;5064227;28;20014;-77
2024/01/01 06:17:55;;;;;;;;;;;7.00;99.90;;;;;;5064063;28;20287;-78
2024/01/01 06:20:22;;;;;;;;;;;7.00;99.90;;;;;;5067073;28;19939;-75
2024/01/01 06:22:49;;;;;;;;;;;7.00;99.90;;;;;;5061963;28;19933;-76
2024/01/01 06:25:17;;;;;;;;;;;6.90;99.90;;;;;;5062899;28;20381;-76
2024/01/01 06:27:44;;;;;;;;;;;7.00;99.90;;;;;;5063408;28;19971;-78
2024/01/01 06:30:11;;;;;;;;;;;7.00;99.90;;;;;;5065179;28;19928;-77
2024/01/01 06:32:37;;;;;;;;;;;7.00;99.90;;;;;;5068785;28;20298;-76
2024/01/01 06:35:04;;;;;;;;;;;7.00;99.90;;;;;;5061583;28;19935;-77
2024/01/01 06:37:31;;;;;;;;;;;6.90;99.90;;;;;;5057464;28;19937;-77
2024/01/01 06:39:57;;;;;;;;;;;7.00;99.90;;;;;;5063065;28;19929;-76
2024/01/01 06:42:25;;;;;;;;;;;6.90;99.90;;;;;;5063674;28;19929;-77
2024/01/01 06:44:52;;;;;;;;;;;6.90;99.90;;;;;;5058372;28;19935;-76
2024/01/01 06:47:18;;;;;;;;;;;6.90;99.90;;;;;;5061981;28;21382;-77
2024/01/01 06:49:45;;;;;;;;;;;6.90;99.90;;;;;;5063623;28;19932;-76
2024/01/01 06:52:11;;;;;;;;;;;6.90;99.90;;;;;;5060557;28;19928;-76
2024/01/01 06:54:38;;;;;;;;;;;6.90;99.90;;;;;;5060761;28;20128;-76
2024/01/01 06:57:05;;;;;;;;;;;6.90;99.90;;;;;;5063070;28;19932;-76
2024/01/01 06:59:33;;;;;;;;;;;6.90;99.90;;;;;;5058112;28;19950;-75
2024/01/01 07:01:59;;;;;;;;;;;6.90;99.90;;;;;;5063494;28;20448;-76
2024/01/01 07:04:26;;;;;;;;;;;6.90;99.90;;;;;;5060923;28;20376;-76
2024/01/01 07:06:53;;;;;;;;;;;6.90;99.90;;;;;;5063305;28;19932;-76
2024/01/01 07:09:19;;;;;;;;;;;6.90;99.90;;;;;;5061656;28;19982;-76
2024/01/01 07:11:46;;;;;;;;;;;6.90;99.90;;;;;;5064599;28;20410;-75
2024/01/01 07:14:12;;;;;;;;;;;6.90;99.90;;;;;;5064967;28;19938;-76
2024/01/01 07:16:40;;;;;;;;;;;6.90;99.90;;;;;;5063375;28;19932;-76
2024/01/01 07:19:07;;;;;;;;;;;6.90;99.90;;;;;;5063103;28;19939;-76
2024/01/01 07:21:33;;;;;;;;;;;6.80;99.90;;;;;;5064238;28;19940;-77
2024/01/01 07:24:00;;;;;;;;;;;6.90;99.90;;;;;;5063319;28;19928;-77
2024/01/01 07:26:27;;;;;;;;;;;6.90;99.90;;;;;;5064773;28;19928;-77
2024/01/01 07:28:53;;;;;;;;;;;6.80;99.90;;;;;;5065325;28;19994;-76
2024/01/01 07:31:21;;;;;;;;;;;6.90;99.90;;;;;;5058418;28;19936;-76
2024/01/01 07:33:49;;;;;;;;;;;6.90;99.90;;;;;;5061100;28;20408;-76
2024/01/01 07:36:15;;;;;;;;;;;6.90;99.90;;;;;;5063130;28;19928;-77
2024/01/01 07:38:42;;;;;;;;;;;6.80;99.90;;;;;;5061657;28;20022;-77
2024/01/01 07:41:08;;;;;;;;;;;6.80;99.90;;;;;;5061134;28;19939;-77
2024/01/01 07:43:34;;;;;;;;;;;6.80;99.90;;;;;;5062298;28;19924;-76
2024/01/01 07:46:01;;;;;;;;;;;6.80;99.90;;;;;;5059738;28;19936;-77
2024/01/01 07:48:28;;;;;;;;;;;6.80;99.90;;;;;;5057481;28;19932;-76
2024/01/01 07:50:55;;;;;;;;;;;6.80;99.90;;;;;;5059474;28;20004;-75
2024/01/01 07:53:22;;;;;;;;;;;6.80;99.90;;;;;;5057937;28;19928;-77
2024/01/01 07:55:48;;;;;;;;;;;6.80;99.90;;;;;;5060495;28;19936;-78
2024/01/01 07:58:16;;;;;;;;;;;6.80;99.90;;;;;;5061771;28;19929;-75
2024/01/01 08:00:42;;;;;;;;;;;6.70;99.90;;;;;;5059404;28;19970;-76
2024/01/01 08:03:09;;;;;;;;;;;6.80;99.90;;;;;;5057777;28;19928;-76
2024/01/01 08:05:35;;;;;;;;;;;6.80;99.90;;;;;;5059637;28;19929;-76
2024/01/01 08:08:03;;;;;;;;;;;6.80;99.90;;;;;;5062091;28;20060;-76
2024/01/01 08:10:30;;;;;;;;;;;6.80;99.90;;;;;;5061977;28;20397;-77
2024/01/01 08:12:56;;;;;;;;;;;6.80;99.90;;;;;;5061602;28;19939;-77
2024/01/01 08:15:24;;;;;;;;;;;6.70;99.90;;;;;;5061436;28;19936;-77
2024/01/01 08:17:51;;;;;;;;;;;6.80;99.90;;;;;;5060653;28;19934;-77
2024/01/01 08:20:19;;;;;;;;;;;6.70;99.90;;;;;;5058714;28;19932;-77
2024/01/01 08:22:46;;;;;;;;;;;6.70;99.90;;;;;;5061247;28;20008;-75
2024/01/01 08:25:14;;;;;;;;;;;6.70;99.90;;;;;;5062122;28;19974;-77
2024/01/01 08:27:40;;;;;;;;;;;6.70;99.90;;;;;;5062230;28;19932;-77
2024/01/01 08:30:07;;;;;;;;;;;6.70;99.90;;;;;;5064449;28;20050;-77
2024/01/01 08:32:34;;;;;;;;;;;6.70;99.90;;;;;;5063473;28;19925;-77
2024/01/01 08:35:00;;;;;;;;;;;6.70;99.90;;;;;;5061103;28;19928;-77
2024/01/01 08:37:27;;;;;;;;;;;6.70;99.90;;;;;;5062012;28;19935;-76
2024/01/01 08:39:53;;;;;;;;;;;6.70;99.90;;;;;;5061292;28;19929;-77
2024/01/01 08:42:21;;;;;;;;;;;6.70;99.90;;;;;;5062458;28;19938;-77
2024/01/01 08:44:48;;;;;;;;;;;6.70;99.90;;;;;;5060345;28;19928;-76
2024/01/01 08:47:15;;;;;;;;;;;6.70;99.90;;;;;;5065777;28;19940;-76
2024/01/01 08:49:41;;;;;;;;;;;6.70;99.90;;;;;;5065523;28;20608;-76
2024/01/01 08:52:08;;;;;;;;;;;6.70;99.90;;;;;;5063124;28;19928;-76
2024/01/01 08:54:35;;;;;;;;;;;6.70;99.90;;;;;;5058319;28;19931;-78
2024/01/01 08:57:03;;;;;;;;;;;6.70;99.90;;;;;;5058577;28;19982;-76
2024/01/01 08:59:31;;;;;;;;;;;6.70;99.90;;;;;;5066431;28;20368;-77
2024/01/01 09:01:57;;;;;;;;;;;6.70;99.90;;;;;;5063060;28;19932;-78
2024/01/01 09:04:24;;;;;;;;;;;6.70;99.90;;;;;;5061691;28;20654;-76
2024/01/01 09:06:51;;;;;;;;;;;6.70;99.90;;;;;;5067404;28;19935;-75
2024/01/01 09:09:17;;;;;;;;;;;6.80;99.90;;;;;;5059417;28;20035;-76
2024/01/01 09:11:47;;;;;;;;;;;6.80;99.90;;;;;;5066498;28;20386;-76
2024/01/01 09:14:13;;;;;;;;;;;6.70;99.90;;;;;;5067164;28;19935;-76
2024/01/01 09:16:41;;;;;;;;;;;6.70;99.90;;;;;;5066360;28;19951;-77
2024/01/01 09:19:08;;;;;;;;;;;6.80;99.90;;;;;;5068475;28;19954;-76
2024/01/01 09:21:34;;;;;;;;;;;6.80;99.90;;;;;;5056712;28;19928;-78
2024/01/01 09:24:01;;;;;;;;;;;6.80;99.90;;;;;;5058180;28;19932;-77
2024/01/01 09:26:28;;;;;;;;;;;6.80;99.90;;;;;;5060919;28;19936;-76
2024/01/01 09:28:55;;;;;;;;;;;6.80;99.90;;;;;;5054816;28;19928;-77
2024/01/01 09:31:21;;;;;;;;;;;6.80;99.90;;;;;;5059365;28;20329;-76
2024/01/01 09:33:49;;;;;;;;;;;6.80;99.90;;;;;;5064168;28;19936;-77
2024/01/01 09:36:16;;;;;;;;;;;6.80;99.90;;;;;;5065134;28;20302;-75
2024/01/01 09:38:42;;;;;;;;;;;6.90;99.90;;;;;;5056536;28;20336;-77
2024/01/01 09:41:10;;;;;;;;;;;6.80;99.90;;;;;;5063709;28;19928;-76
2024/01/01 09:43:36;;;;;;;;;;;6.80;99.90;;;;;;5060412;28;19933;-75
2024/01/01 09:46:03;;;;;;;;;;;6.80;99.90;;;;;;5062326;28;19936;-76
2024/01/01 09:48:30;;;;;;;;;;;6.90;99.90;;;;;;5062359;28;20474;-76
2024/01/01 09:50:58;;;;;;;;;;;6.80;99.90;;;;;;5064969;28;20404;-77
2024/01/01 09:53:24;;;;;;;;;;;6.80;99.90;;;;;;5061395;28;19929;-77
2024/01/01 09:55:51;;;;;;;;;;;6.90;99.90;;;;;;5062835;28;19929;-76
2024/01/01 09:58:18;;;;;;;;;;;6.90;99.90;;;;;;5063084;28;19957;-76
2024/01/01 10:00:44;;;;;;;;;;;6.90;99.90;;;;;;5057927;28;20282;-76
2024/01/01 10:03:11;;;;;;;;;;;6.90;99.90;;;;;;5060853;28;19928;-77
2024/01/01 10:05:38;;;;;;;;;;;6.90;99.90;;;;;;5058322;28;19943;-77
2024/01/01 10:08:10;;;;;;;;;;;6.90;99.90;;;;;;5060050;28;21731;-77
2024/01/01 10:10:37;;;;;;;;;;;6.90;99.90;;;;;;5062691;28;19929;-77
2024/01/01 10:13:10;;;;;;;;;;;7.00;99.90;;;;;;5061466;28;20001;-76
2024/01/01 10:15:37;;;;;;;;;;;7.00;99.90;;;;;;5064753;28;19935;-76
2024/01/01 10:18:10;;;;;;;;;;;7.00;99.90;;;;;;5059898;28;20277;-76
2024/01/01 10:20:38;;;;;;;;;;;7.00;99.90;;;;;;5063571;28;19956;-76
2024/01/01 10:23:25;;;;;;;;;;;7.00;99.90;;;;;;5061490;28;19928;-76
2024/01/01 10:26:01;;;;;;;;;;;7.00;99.90;;;;;;5066105;28;19986;-74
2024/01/01 10:28:30;;;;;;;;;;;7.10;99.90;;;;;;5066696;28;19990;-77
2024/01/01 10:30:57;;;;;;;;;;;7.00;99.90;;;;;;5062980;28;19932;-75
2024/01/01 10:33:24;;;;;;;;;;;7.00;99.90;;;;;;5060767;28;19978;-74
2024/01/01 10:35:52;;;;;;;;;;;7.10;99.90;;;;;;5057824;28;19940;-73
2024/01/01 10:38:20;;;;;;;;;;;7.10;99.90;;;;;;5058277;28;19933;-76
2024/01/01 10:40:47;;;;;;;;;;;7.10;99.90;;;;;;5059466;28;19978;-73
2024/01/01 10:43:14;;;;;;;;;;;7.10;99.90;;;;;;5067105;28;19936;-74
2024/01/01 10:45:40;;;;;;;;;;;7.10;99.90;;;;;;5068102;28;19935;-74
2024/01/01 10:48:07;;;;;;;;;;;7.10;99.90;;;;;;5064565;28;19933;-75
2024/01/01 10:50:40;;;;;;;;;;;7.20;99.90;;;;;;5067015;28;19939;-73
2024/01/01 10:53:10;;;;;;;;;;;7.20;99.90;;;;;;5061240;28;20441;-75
2024/01/01 10:55:52;;;;;;;;;;;7.20;99.90;;;;;;5062938;28;20395;-74
2024/01/01 10:58:22;;;;;;;;;;;7.20;99.90;;;;;;5064943;28;19935;-74
2024/01/01 11:00:54;;;;;;;;;;;7.20;99.90;;;;;;5063572;28;19943;-74
2024/01/01 11:03:20;;;;;;;;;;;7.20;99.90;;;;;;5067648;28;19929;-74
2024/01/01 11:05:50;;;;;;;;;;;7.20;99.90;;;;;;5065214;28;20465;-74
2024/01/01 11:08:25;;;;;;;;;;;7.30;99.90;;;;;;5060901;28;19934;-74
2024/01/01 11:10:53;;;;;;;;;;;7.30;99.90;;;;;;5067585;28;19928;-74
2024/01/01 11:13:34;;;;;;;;;;;7.30;99.90;;;;;;5067064;28;21302;-74
2024/01/01 11:16:03;;;;;;;;;;;7.30;99.90;;;;;;5063422;28;19935;-75
2024/01/01 11:18:32;;;;;;;;;;;7.30;99.90;;;;;;5064901;28;19991;-75
2024/01/01 11:21:01;;;;;;;;;;;7.30;99.90;;;;;;5064394;28;19928;-73
2024/01/01 11:23:40;;;;;;;;;;;7.30;99.90;;;;;;5063217;28;19932;-74
2024/01/01 11:26:26;;;;;;;;;;;7.40;99.90;;;;;;5064160;28;19979;-75
2024/01/01 11:28:54;;;;;;;;;;;7.40;99.90;;;;;;5064023;28;19943;-76
2024/01/01 11:31:21;;;;;;;;;;;7.40;99.90;;;;;;5061778;28;20376;-76
2024/01/01 11:33:58;;;;;;;;;;;7.40;99.90;;;;;;5060492;28;19936;-75
2024/01/01 11:36:25;;;;;;;;;;;7.40;99.90;;;;;;5060164;28;20294;-74
2024/01/01 11:38:52;;;;;;;;;;;7.40;99.90;;;;;;5062607;28;19929;-74
2024/01/01 11:41:21;;;;;;;;;;;7.50;99.90;;;;;;5058330;28;20547;-75
2024/01/01 11:43:48;;;;;;;;;;;7.50;99.90;;;;;;5066166;28;19936;-75
2024/01/01 11:46:23;;;;;;;;;;;7.50;99.90;;;;;;5060491;28;19933;-75
2024/01/01 11:48:55;;;;;;;;;;;7.50;99.90;;;;;;5062748;28;19932;-74
2024/01/01 11:51:21;;;;;;;;;;;7.50;99.90;;;;;;5065593;28;19936;-74
2024/01/01 11:53:48;;;;;;;;;;;7.60;99.90;;;;;;5065251;28;19982;-73
2024/01/01 11:56:14;;;;;;;;;;;7.60;99.90;;;;;;5060891;28;19940;-73
2024/01/01 11:58:41;;;;;;;;;;;7.60;99.90;;;;;;5056927;28;19936;-74
2024/01/01 12:01:08;;;;;;;;;;;7.60;99.90;;;;;;5061594;28;20663;-74
2024/01/01 12:03:36;;;;;;;;;;;7.60;99.90;;;;;;5062718;28;19928;-72
2024/01/01 12:06:03;;;;;;;;;;;7.70;99.90;;;;;;5062887;28;19928;-73
2024/01/01 12:08:29;;;;;;;;;;;7.70;99.90;;;;;;5061037;28;19929;-75
2024/01/01 12:10:58;;;;;;;;;;;7.70;99.90;;;;;;5065588;28;19932;-74
2024/01/01 12:13:25;;;;;;;;;;;7.70;99.90;;;;;;5066719;28;19939;-75
2024/01/01 12:15:53;;;;;;;;;;;7.80;99.90;;;;;;5067092;28;19928;-75
2024/01/01 12:18:19;;;;;;;;;;;7.80;99.90;;;;;;5064978;28;21316;-76
2024/01/01 12:20:47;;;;;;;;;;;7.70;99.90;;;;;;5056218;28;19944;-73
2024/01/01 12:23:16;;;;;;;;;;;7.70;99.90;;;;;;5046679;28;20511;-72
2024/01/01 12:25:43;;;;;;;;;;;7.80;99.90;;;;;;5048659;28;19967;-74
2024/01/01 12:28:09;;;;;;;;;;;7.80;99.90;;;;;;5046615;28;19929;-72
2024/01/01 12:30:37;;;;;;;;;;;7.80;99.90;;;;;;5047580;28;21028;-74
2024/01/01 12:33:03;;;;;;;;;;;7.80;99.90;;;;;;5050046;28;19928;-73
2024/01/01 12:35:30;;;;;;;;;;;7.90;99.90;;;;;;5045639;28;19935;-72
2024/01/01 12:37:58;;;;;;;;;;;7.90;99.90;;;;;;5043482;28;19940;-72
2024/01/01 12:40:27;;;;;;;;;;;7.90;99.90;;;;;;5044650;28;19933;-74
2024/01/01 12:42:55;;;;;;;;;;;7.90;99.90;;;;;;5048866;28;20338;-73
2024/01/01 12:45:21;;;;;;;;;;;7.90;99.90;;;;;;5047269;28;20050;-74
2024/01/01 12:47:48;;;;;;;;;;;7.90;99.90;;;;;;5047368;28;20004;-74
2024/01/01 12:50:14;;;;;;;;;;;7.90;99.90;;;;;;5047665;28;19935;-73
2024/01/01 12:52:41;;;;;;;;;;;7.90;99.90;;;;;;5048086;28;19928;-74
2024/01/01 12:55:09;;;;;;;;;;;7.90;99.90;;;;;;5046337;28;19962;-73
2024/01/01 12:57:36;;;;;;;;;;;7.90;99.90;;;;;;5048091;28;20410;-74
2024/01/01 13:00:03;;;;;;;;;;;7.90;99.90;;;;;;5044998;28;20002;-73
2024/01/01 13:02:29;;;;;;;;;;;7.90;99.90;;;;;;5047469;28;19933;-73
2024/01/01 13:04:55;;;;;;;;;;;7.90;99.90;;;;;;5043694;28;20301;-73
2024/01/01 13:07:21;;;;;;;;;;;8.00;99.90;;;;;;5046037;28;19931;-75
2024/01/01 13:09:48;;;;;;;;;;;8.00;99.90;;;;;;5045887;28;19928;-75
2024/01/01 13:12:16;;;;;;;;;;;8.00;99.90;;;;;;5042971;28;19933;-75
2024/01/01 13:14:42;;;;;;;;;;;8.00;99.90;;;;;;5046626;28;20952;-74
2024/01/01 13:17:10;;;;;;;;;;;8.10;99.90;;;;;;5042551;28;19929;-73
2024/01/01 13:19:38;;;;;;;;;;;8.10;99.90;;;;;;5044861;28;19960;-74
2024/01/01 13:22:05;;;;;;;;;;;8.00;99.90;;;;;;5045965;28;19937;-73
2024/01/01 13:24:33;;;;;;;;;;;8.10;99.90;;;;;;5043033;28;19928;-73
2024/01/01 13:27:00;;;;;;;;;;;8.10;99.90;;;;;;5051801;28;20019;-73
2024/01/01 13:29:28;;;;;;;;;;;8.00;99.90;;;;;;5069603;28;19929;-75
2024/01/01 13:31:54;;;;;;;;;;;8.10;99.90;;;;;;5066052;28;19935;-74
2024/01/01 13:34:22;;;;;;;;;;;8.00;99.90;;;;;;5066976;28;19981;-74
2024/01/01 13:36:48;;;;;;;;;;;8.10;99.90;;;;;;5064946;28;19935;-74
2024/01/01 13:39:16;;;;;;;;;;;8.10;99.90;;;;;;5062531;28;19932;-74
2024/01/01 13:41:43;;;;;;;;;;;8.10;99.90;;;;;;5063212;28;20005;-74
2024/01/01 13:44:09;;;;;;;;;;;8.10;99.90;;;;;;5065141;28;19934;-74
2024/01/01 13:46:39;;;;;;;;;;;8.10;99.90;;;;;;5061893;28;20223;-73
2024/01/01 13:49:05;;;;;;;;;;;8.10;99.90;;;;;;5064236;28;20421;-74
2024/01/01 13:51:33;;;;;;;;;;;8.10;99.90;;;;;;5063257;28;19928;-74
2024/01/01 13:54:00;;;;;;;;;;;8.10;99.90;;;;;;5063665;28;19928;-73
2024/01/01 13:56:26;;;;;;;;;;;8.20;99.90;;;;;;5060607;28;20323;-73
2024/01/01 13:58:54;;;;;;;;;;;8.20;99.90;;;;;;5063429;28;19950;-74
2024/01/01 14:01:20;;;;;;;;;;;8.10;99.90;;;;;;5062921;28;19933;-74
2024/01/01 14:03:48;;;;;;;;;;;8.10;99.90;;;;;;5062183;28;20310;-74
2024/01/01 14:06:15;;;;;;;;;;;8.10;99.90;;;;;;5062559;28;19959;-75
2024/01/01 14:08:41;;;;;;;;;;;8.10;99.90;;;;;;5064209;28;20629;-72
2024/01/01 14:11:08;;;;;;;;;;;8.10;99.90;;;;;;5062605;28;19981;-73
2024/01/01 14:13:34;;;;;;;;;;;8.10;99.90;;;;;;5065258;28;19939;-72
2024/01/01 14:16:01;;;;;;;;;;;8.10;99.90;;;;;;5065016;28;19935;-73
2024/01/01 14:18:27;;;;;;;;;;;8.20;99.90;;;;;;5064243;28;19930;-73
2024/01/01 14:20:55;;;;;;;;;;;8.10;99.90;;;;;;5064355;28;19944;-73
2024/01/01 14:23:22;;;;;;;;;;;8.10;99.90;;;;;;5062805;28;20644;-74
2024/01/01 14:25:48;;;;;;;;;;;8.10;99.90;;;;;;5062493;28;19939;-72
2024/01/01 14:28:15;;;;;;;;;;;8.10;99.90;;;;;;5065192;28;19940;-74
2024/01/01 14:30:42;;;;;;;;;;;8.10;99.90;;;;;;5065023;28;19928;-73